sensor_id;sensor_type;location;lat;lon;timestamp;temperature;humidity
16767;DHT22;8501;49.926;8.404;2022-09-23T00:01:51;12.10;99.90
16767;DHT22;8501;49.926;8.404;2022-09-23T00:04:18;12.00;99.90
16767;DHT22;8501;49.926;8.404;2022-09-23T00:06:43;12.00;99.90
16767;DHT22;8501;49.926;8.404;2022-09-23T00:09:08;12.00;99.90
16767;DHT22;8501;49.926;8.404;2022-09-23T00:11:34;11.90;99.90
16767;DHT22;8501;49.926;8.404;2022-09-23T00:13:59;11.90;99.90
16767;DHT22;8501;49.926;8.404;2022-09-23T00:16:31;12.00;99.90
16767;DHT22;8501;49.926;8.404;2022-09-23T00:18:57;11.90;99.90
16767;DHT22;8501;49.926;8.404;2022-09-23T00:21:23;11.90;99.90
16767;DHT22;8501;49.926;8.404;2022-09-23T00:23:49;11.90;99.90
16767;DHT22;8501;49.926;8.404;2022-09-23T00:26:17;11.90;99.90
16767;DHT22;8501;49.926;8.404;2022-09-23T00:28:44;11.80;99.90
16767;DHT22;8501;49.926;8.404;2022-09-23T00:31:13;11.80;99.90
16767;DHT22;8501;49.926;8.404;2022-09-23T00:33:39;11.70;99.90
16767;DHT22;8501;49.926;8.404;2022-09-23T00:36:10;11.70;99.90
16767;DHT22;8501;49.926;8.404;2022-09-23T00:38:36;11.70;99.90
16767;DHT22;8501;49.926;8.404;2022-09-23T00:41:02;11.70;99.90
16767;DHT22;8501;49.926;8.404;2022-09-23T00:43:39;11.60;99.90
16767;DHT22;8501;49.926;8.404;2022-09-23T00:46:07;11.60;99.90
16767;DHT22;8501;49.926;8.404;2022-09-23T00:48:34;11.60;99.90
16767;DHT22;8501;49.926;8.404;2022-09-23T00:51:01;11.50;99.90
16767;DHT22;8501;49.926;8.404;2022-09-23T00:53:27;11.50;99.90
16767;DHT22;8501;49.926;8.404;2022-09-23T00:56:00;11.50;99.90
16767;DHT22;8501;49.926;8.404;2022-09-23T00:58:29;11.50;99.90
16767;DHT22;8501;49.926;8.404;2022-09-23T01:00:58;11.50;99.90
16767;DHT22;8501;49.926;8.404;2022-09-23T01:03:24;11.50;99.90
16767;DHT22;8501;49.926;8.404;2022-09-23T01:05:50;11.50;99.90
16767;DHT22;8501;49.926;8.404;2022-09-23T01:08:17;11.50;99.90
16767;DHT22;8501;49.926;8.404;2022-09-23T01:21:56;11.30;99.90
16767;DHT22;8501;49.926;8.404;2022-09-23T01:33:01;11.30;99.90
16767;DHT22;8501;49.926;8.404;2022-09-23T01:35:57;11.30;99.90
16767;DHT22;8501;49.926;8.404;2022-09-23T01:38:32;11.20;99.90
16767;DHT22;8501;49.926;8.404;2022-09-23T01:41:22;11.10;99.90
16767;DHT22;8501;49.926;8.404;2022-09-23T01:44:02;11.10;99.90
16767;DHT22;8501;49.926;8.404;2022-09-23T01:46:34;11.10;99.90
16767;DHT22;8501;49.926;8.404;2022-09-23T01:49:21;11.10;99.90
16767;DHT22;8501;49.926;8.404;2022-09-23T01:51:53;11.10;99.90
16767;DHT22;8501;49.926;8.404;2022-09-23T01:54:25;11.10;99.90
16767;DHT22;8501;49.926;8.404;2022-09-23T01:57:01;11.10;99.90
16767;DHT22;8501;49.926;8.404;2022-09-23T01:59:42;11.10;99.90
16767;DHT22;8501;49.926;8.404;2022-09-23T02:02:16;11.10;99.90
16767;DHT22;8501;49.926;8.404;2022-09-23T02:05:07;11.00;99.90
16767;DHT22;8501;49.926;8.404;2022-09-23T02:07:46;11.00;99.90
16767;DHT22;8501;49.926;8.404;2022-09-23T02:12:58;10.90;99.90
16767;DHT22;8501;49.926;8.404;2022-09-23T02:15:32;10.90;99.90
16767;DHT22;8501;49.926;8.404;2022-09-23T02:18:07;10.90;99.90
16767;DHT22;8501;49.926;8.404;2022-09-23T02:20:36;11.00;99.90
16767;DHT22;8501;49.926;8.404;2022-09-23T02:23:21;10.80;99.90
16767;DHT22;8501;49.926;8.404;2022-09-23T02:26:07;10.80;99.90
16767;DHT22;8501;49.926;8.404;2022-09-23T02:28:46;10.80;99.90
16767;DHT22;8501;49.926;8.404;2022-09-23T02:39:22;10.70;99.90
16767;DHT22;8501;49.926;8.404;2022-09-23T02:42:04;10.70;99.90
16767;DHT22;8501;49.926;8.404;2022-09-23T02:44:32;10.60;99.90
16767;DHT22;8501;49.926;8.404;2022-09-23T02:46:58;10.60;99.90
16767;DHT22;8501;49.926;8.404;2022-09-23T02:49:26;10.60;99.90
16767;DHT22;8501;49.926;8.404;2022-09-23T02:51:54;10.60;99.90
16767;DHT22;8501;49.926;8.404;2022-09-23T02:54:24;10.70;99.90
16767;DHT22;8501;49.926;8.404;2022-09-23T02:56:52;10.60;99.90
16767;DHT22;8501;49.926;8.404;2022-09-23T02:59:20;10.70;99.90
16767;DHT22;8501;49.926;8.404;2022-09-23T03:04:49;10.70;99.90
16767;DHT22;8501;49.926;8.404;2022-09-23T03:12:57;10.50;99.90
16767;DHT22;8501;49.926;8.404;2022-09-23T03:15:49;10.50;99.90
16767;DHT22;8501;49.926;8.404;2022-09-23T03:18:32;10.40;99.90
16767;DHT22;8501;49.926;8.404;2022-09-23T03:21:24;10.40;99.90
16767;DHT22;8501;49.926;8.404;2022-09-23T03:23:52;10.40;99.90
16767;DHT22;8501;49.926;8.404;2022-09-23T03:26:23;10.40;99.90
16767;DHT22;8501;49.926;8.404;2022-09-23T03:28:51;10.40;99.90
16767;DHT22;8501;49.926;8.404;2022-09-23T03:31:17;10.40;99.90
16767;DHT22;8501;49.926;8.404;2022-09-23T03:33:49;10.30;99.90
16767;DHT22;8501;49.926;8.404;2022-09-23T03:36:21;10.30;99.90
16767;DHT22;8501;49.926;8.404;2022-09-23T03:39:10;10.30;99.90
16767;DHT22;8501;49.926;8.404;2022-09-23T03:41:42;10.30;99.90
16767;DHT22;8501;49.926;8.404;2022-09-23T03:44:09;10.30;99.90
16767;DHT22;8501;49.926;8.404;2022-09-23T03:46:36;10.20;99.90
16767;DHT22;8501;49.926;8.404;2022-09-23T03:49:14;10.20;99.90
16767;DHT22;8501;49.926;8.404;2022-09-23T03:51:40;10.20;99.90
16767;DHT22;8501;49.926;8.404;2022-09-23T03:54:06;10.20;99.90
16767;DHT22;8501;49.926;8.404;2022-09-23T03:56:31;10.30;99.90
16767;DHT22;8501;49.926;8.404;2022-09-23T03:58:57;10.20;99.90
16767;DHT22;8501;49.926;8.404;2022-09-23T04:01:24;10.20;99.90
16767;DHT22;8501;49.926;8.404;2022-09-23T04:03:50;10.20;99.90
16767;DHT22;8501;49.926;8.404;2022-09-23T04:06:16;10.20;99.90
16767;DHT22;8501;49.926;8.404;2022-09-23T04:08:42;10.20;99.90
16767;DHT22;8501;49.926;8.404;2022-09-23T04:11:07;10.20;99.90
16767;DHT22;8501;49.926;8.404;2022-09-23T04:13:33;10.30;99.90
16767;DHT22;8501;49.926;8.404;2022-09-23T04:15:58;10.10;99.90
16767;DHT22;8501;49.926;8.404;2022-09-23T04:18:24;10.10;99.90
16767;DHT22;8501;49.926;8.404;2022-09-23T04:20:49;10.10;99.90
16767;DHT22;8501;49.926;8.404;2022-09-23T04:23:15;10.20;99.90
16767;DHT22;8501;49.926;8.404;2022-09-23T04:25:47;10.10;99.90
16767;DHT22;8501;49.926;8.404;2022-09-23T04:28:13;10.00;99.90
16767;DHT22;8501;49.926;8.404;2022-09-23T04:30:42;10.00;99.90
16767;DHT22;8501;49.926;8.404;2022-09-23T04:33:12;10.00;99.90
16767;DHT22;8501;49.926;8.404;2022-09-23T04:35:39;10.00;99.90
16767;DHT22;8501;49.926;8.404;2022-09-23T04:38:05;10.10;99.90
16767;DHT22;8501;49.926;8.404;2022-09-23T04:40:31;10.10;99.90
16767;DHT22;8501;49.926;8.404;2022-09-23T04:42:57;10.00;99.90
16767;DHT22;8501;49.926;8.404;2022-09-23T04:45:22;10.00;99.90
16767;DHT22;8501;49.926;8.404;2022-09-23T04:47:48;10.00;99.90
16767;DHT22;8501;49.926;8.404;2022-09-23T04:50:14;10.00;99.90
16767;DHT22;8501;49.926;8.404;2022-09-23T04:52:39;10.10;99.90
16767;DHT22;8501;49.926;8.404;2022-09-23T04:55:06;10.10;99.90
16767;DHT22;8501;49.926;8.404;2022-09-23T04:57:31;10.10;99.90
16767;DHT22;8501;49.926;8.404;2022-09-23T04:59:57;10.10;99.90
16767;DHT22;8501;49.926;8.404;2022-09-23T05:02:23;10.10;99.90
16767;DHT22;8501;49.926;8.404;2022-09-23T05:04:49;10.00;99.90
16767;DHT22;8501;49.926;8.404;2022-09-23T05:07:14;10.00;99.90
16767;DHT22;8501;49.926;8.404;2022-09-23T05:09:41;10.10;99.90
16767;DHT22;8501;49.926;8.404;2022-09-23T05:12:06;10.10;99.90
16767;DHT22;8501;49.926;8.404;2022-09-23T05:14:32;10.10;99.90
16767;DHT22;8501;49.926;8.404;2022-09-23T05:16:57;10.20;99.90
16767;DHT22;8501;49.926;8.404;2022-09-23T05:19:23;10.10;99.90
16767;DHT22;8501;49.926;8.404;2022-09-23T05:21:48;10.20;99.90
16767;DHT22;8501;49.926;8.404;2022-09-23T05:24:14;10.10;99.90
16767;DHT22;8501;49.926;8.404;2022-09-23T05:26:41;10.10;99.90
16767;DHT22;8501;49.926;8.404;2022-09-23T05:29:06;10.10;99.90
16767;DHT22;8501;49.926;8.404;2022-09-23T05:31:33;10.10;99.90
16767;DHT22;8501;49.926;8.404;2022-09-23T05:34:00;10.00;99.90
16767;DHT22;8501;49.926;8.404;2022-09-23T05:36:28;10.00;99.90
16767;DHT22;8501;49.926;8.404;2022-09-23T05:38:54;10.00;99.90
16767;DHT22;8501;49.926;8.404;2022-09-23T05:41:22;10.00;99.90
16767;DHT22;8501;49.926;8.404;2022-09-23T05:43:48;10.00;99.90
16767;DHT22;8501;49.926;8.404;2022-09-23T05:46:18;10.10;99.90
16767;DHT22;8501;49.926;8.404;2022-09-23T05:48:44;10.10;99.90
16767;DHT22;8501;49.926;8.404;2022-09-23T05:51:16;10.10;99.90
16767;DHT22;8501;49.926;8.404;2022-09-23T05:53:43;10.10;99.90
16767;DHT22;8501;49.926;8.404;2022-09-23T05:56:12;10.10;99.90
16767;DHT22;8501;49.926;8.404;2022-09-23T05:58:38;10.10;99.90
16767;DHT22;8501;49.926;8.404;2022-09-23T06:01:09;10.20;99.90
16767;DHT22;8501;49.926;8.404;2022-09-23T06:03:35;10.20;99.90
16767;DHT22;8501;49.926;8.404;2022-09-23T06:06:00;10.30;99.90
16767;DHT22;8501;49.926;8.404;2022-09-23T06:08:26;10.20;99.90
16767;DHT22;8501;49.926;8.404;2022-09-23T06:10:52;10.20;99.90
16767;DHT22;8501;49.926;8.404;2022-09-23T06:13:17;10.30;99.90
16767;DHT22;8501;49.926;8.404;2022-09-23T06:15:43;10.30;99.90
16767;DHT22;8501;49.926;8.404;2022-09-23T06:18:10;10.30;99.90
16767;DHT22;8501;49.926;8.404;2022-09-23T06:20:35;10.20;99.90
16767;DHT22;8501;49.926;8.404;2022-09-23T06:23:06;10.20;99.90
16767;DHT22;8501;49.926;8.404;2022-09-23T06:25:33;10.20;99.90
16767;DHT22;8501;49.926;8.404;2022-09-23T06:27:58;10.20;99.90
16767;DHT22;8501;49.926;8.404;2022-09-23T06:30:25;10.20;99.90
16767;DHT22;8501;49.926;8.404;2022-09-23T06:32:52;10.20;99.90
16767;DHT22;8501;49.926;8.404;2022-09-23T06:35:23;10.20;99.90
16767;DHT22;8501;49.926;8.404;2022-09-23T06:37:49;10.20;99.90
16767;DHT22;8501;49.926;8.404;2022-09-23T06:40:15;10.10;99.90
16767;DHT22;8501;49.926;8.404;2022-09-23T06:42:41;10.20;99.90
16767;DHT22;8501;49.926;8.404;2022-09-23T06:45:08;10.30;99.90
16767;DHT22;8501;49.926;8.404;2022-09-23T06:47:37;10.40;99.90
16767;DHT22;8501;49.926;8.404;2022-09-23T06:50:03;10.50;99.90
16767;DHT22;8501;49.926;8.404;2022-09-23T06:52:29;10.40;99.90
16767;DHT22;8501;49.926;8.404;2022-09-23T06:54:55;10.30;99.90
16767;DHT22;8501;49.926;8.404;2022-09-23T06:57:21;10.20;99.90
16767;DHT22;8501;49.926;8.404;2022-09-23T06:59:46;10.40;99.90
16767;DHT22;8501;49.926;8.404;2022-09-23T07:02:12;10.40;99.90
16767;DHT22;8501;49.926;8.404;2022-09-23T07:04:38;10.30;99.90
16767;DHT22;8501;49.926;8.404;2022-09-23T07:07:04;10.40;99.90
16767;DHT22;8501;49.926;8.404;2022-09-23T07:09:29;10.50;99.90
16767;DHT22;8501;49.926;8.404;2022-09-23T07:11:55;10.50;99.90
16767;DHT22;8501;49.926;8.404;2022-09-23T07:14:21;10.50;99.90
16767;DHT22;8501;49.926;8.404;2022-09-23T07:16:49;10.50;99.90
16767;DHT22;8501;49.926;8.404;2022-09-23T07:19:17;10.60;99.90
16767;DHT22;8501;49.926;8.404;2022-09-23T07:21:43;10.60;99.90
16767;DHT22;8501;49.926;8.404;2022-09-23T07:24:08;10.70;99.90
16767;DHT22;8501;49.926;8.404;2022-09-23T07:26:34;10.80;99.90
16767;DHT22;8501;49.926;8.404;2022-09-23T07:29:00;10.80;99.90
16767;DHT22;8501;49.926;8.404;2022-09-23T07:31:33;10.80;99.90
16767;DHT22;8501;49.926;8.404;2022-09-23T07:33:59;10.90;99.90
16767;DHT22;8501;49.926;8.404;2022-09-23T07:36:28;11.00;99.90
16767;DHT22;8501;49.926;8.404;2022-09-23T07:38:55;10.90;99.90
16767;DHT22;8501;49.926;8.404;2022-09-23T07:41:26;11.00;99.90
16767;DHT22;8501;49.926;8.404;2022-09-23T07:43:53;11.10;99.90
16767;DHT22;8501;49.926;8.404;2022-09-23T07:46:21;11.10;99.90
16767;DHT22;8501;49.926;8.404;2022-09-23T07:48:46;11.10;99.90
16767;DHT22;8501;49.926;8.404;2022-09-23T07:51:19;11.20;99.90
16767;DHT22;8501;49.926;8.404;2022-09-23T07:53:49;11.30;99.90
16767;DHT22;8501;49.926;8.404;2022-09-23T07:56:16;11.40;99.90
16767;DHT22;8501;49.926;8.404;2022-09-23T07:58:44;11.50;99.90
16767;DHT22;8501;49.926;8.404;2022-09-23T08:01:10;11.50;99.90
16767;DHT22;8501;49.926;8.404;2022-09-23T08:03:37;11.60;99.90
16767;DHT22;8501;49.926;8.404;2022-09-23T08:06:12;11.60;99.90
16767;DHT22;8501;49.926;8.404;2022-09-23T08:08:39;11.60;99.90
16767;DHT22;8501;49.926;8.404;2022-09-23T08:11:09;11.80;99.90
16767;DHT22;8501;49.926;8.404;2022-09-23T08:13:35;11.80;99.90
16767;DHT22;8501;49.926;8.404;2022-09-23T08:16:01;11.90;99.90
16767;DHT22;8501;49.926;8.404;2022-09-23T08:18:26;11.90;99.90
16767;DHT22;8501;49.926;8.404;2022-09-23T08:20:52;12.00;99.90
16767;DHT22;8501;49.926;8.404;2022-09-23T08:23:18;12.00;99.90
16767;DHT22;8501;49.926;8.404;2022-09-23T08:25:45;12.10;99.90
16767;DHT22;8501;49.926;8.404;2022-09-23T08:28:15;12.10;99.90
16767;DHT22;8501;49.926;8.404;2022-09-23T08:30:47;12.20;99.90
16767;DHT22;8501;49.926;8.404;2022-09-23T08:33:13;12.40;99.90
16767;DHT22;8501;49.926;8.404;2022-09-23T08:35:39;12.50;99.90
16767;DHT22;8501;49.926;8.404;2022-09-23T08:38:05;12.50;99.90
16767;DHT22;8501;49.926;8.404;2022-09-23T08:40:39;12.60;99.90
16767;DHT22;8501;49.926;8.404;2022-09-23T08:43:07;12.60;99.90
16767;DHT22;8501;49.926;8.404;2022-09-23T08:45:40;12.70;99.90
16767;DHT22;8501;49.926;8.404;2022-09-23T08:48:14;12.70;99.90
16767;DHT22;8501;49.926;8.404;2022-09-23T08:50:45;12.80;99.90
16767;DHT22;8501;49.926;8.404;2022-09-23T08:55:48;12.90;99.90
16767;DHT22;8501;49.926;8.404;2022-09-23T08:58:38;13.00;99.90
16767;DHT22;8501;49.926;8.404;2022-09-23T09:01:32;13.10;99.90
16767;DHT22;8501;49.926;8.404;2022-09-23T09:04:15;13.10;99.90
16767;DHT22;8501;49.926;8.404;2022-09-23T09:07:08;13.10;99.90
16767;DHT22;8501;49.926;8.404;2022-09-23T09:09:47;13.20;99.90
16767;DHT22;8501;49.926;8.404;2022-09-23T09:12:30;13.30;99.90
16767;DHT22;8501;49.926;8.404;2022-09-23T09:15:05;13.40;99.90
16767;DHT22;8501;49.926;8.404;2022-09-23T09:18:03;13.40;99.90
16767;DHT22;8501;49.926;8.404;2022-09-23T09:20:50;13.50;99.90
16767;DHT22;8501;49.926;8.404;2022-09-23T09:26:04;13.60;99.90
16767;DHT22;8501;49.926;8.404;2022-09-23T09:31:01;13.90;99.90
16767;DHT22;8501;49.926;8.404;2022-09-23T09:33:59;13.90;99.90
16767;DHT22;8501;49.926;8.404;2022-09-23T09:36:48;14.00;99.90
16767;DHT22;8501;49.926;8.404;2022-09-23T09:39:14;14.00;99.90
16767;DHT22;8501;49.926;8.404;2022-09-23T09:41:50;14.10;99.90
16767;DHT22;8501;49.926;8.404;2022-09-23T09:44:25;14.10;99.90
16767;DHT22;8501;49.926;8.404;2022-09-23T09:49:44;14.10;99.90
16767;DHT22;8501;49.926;8.404;2022-09-23T09:54:47;14.40;99.90
16767;DHT22;8501;49.926;8.404;2022-09-23T10:02:43;14.50;99.90
16767;DHT22;8501;49.926;8.404;2022-09-23T10:05:23;14.50;99.90
16767;DHT22;8501;49.926;8.404;2022-09-23T10:07:50;14.60;99.90
16767;DHT22;8501;49.926;8.404;2022-09-23T10:10:19;14.80;99.90
16767;DHT22;8501;49.926;8.404;2022-09-23T10:12:46;14.90;99.90
16767;DHT22;8501;49.926;8.404;2022-09-23T10:15:42;14.90;99.90
16767;DHT22;8501;49.926;8.404;2022-09-23T10:18:22;15.10;99.90
16767;DHT22;8501;49.926;8.404;2022-09-23T10:20:50;15.10;99.90
16767;DHT22;8501;49.926;8.404;2022-09-23T10:23:25;15.20;99.90
16767;DHT22;8501;49.926;8.404;2022-09-23T10:25:56;15.40;99.90
16767;DHT22;8501;49.926;8.404;2022-09-23T10:31:07;15.30;99.90
16767;DHT22;8501;49.926;8.404;2022-09-23T10:33:58;15.40;99.90
16767;DHT22;8501;49.926;8.404;2022-09-23T10:36:31;15.50;99.90
16767;DHT22;8501;49.926;8.404;2022-09-23T10:39:08;15.50;99.90
16767;DHT22;8501;49.926;8.404;2022-09-23T10:42:09;15.50;99.90
16767;DHT22;8501;49.926;8.404;2022-09-23T10:45:26;15.60;99.90
16767;DHT22;8501;49.926;8.404;2022-09-23T10:51:22;15.70;99.90
16767;DHT22;8501;49.926;8.404;2022-09-23T10:54:01;15.90;99.90
16767;DHT22;8501;49.926;8.404;2022-09-23T10:56:36;16.00;99.90
16767;DHT22;8501;49.926;8.404;2022-09-23T11:02:43;15.90;99.90
16767;DHT22;8501;49.926;8.404;2022-09-23T11:05:06;16.00;99.90
16767;DHT22;8501;49.926;8.404;2022-09-23T11:07:53;16.20;99.90
16767;DHT22;8501;49.926;8.404;2022-09-23T11:19:13;16.50;99.90
16767;DHT22;8501;49.926;8.404;2022-09-23T11:30:21;16.80;99.90
16767;DHT22;8501;49.926;8.404;2022-09-23T11:36:06;16.80;99.90
16767;DHT22;8501;49.926;8.404;2022-09-23T11:38:42;16.80;99.90
16767;DHT22;8501;49.926;8.404;2022-09-23T11:41:22;16.70;99.90
16767;DHT22;8501;49.926;8.404;2022-09-23T11:43:58;16.60;99.90
16767;DHT22;8501;49.926;8.404;2022-09-23T11:46:33;16.70;99.90
16767;DHT22;8501;49.926;8.404;2022-09-23T11:49:14;16.80;99.90
16767;DHT22;8501;49.926;8.404;2022-09-23T11:54:32;16.80;99.90
16767;DHT22;8501;49.926;8.404;2022-09-23T11:57:02;16.80;99.90
16767;DHT22;8501;49.926;8.404;2022-09-23T11:59:47;16.80;99.90
16767;DHT22;8501;49.926;8.404;2022-09-23T12:02:17;16.80;99.90
16767;DHT22;8501;49.926;8.404;2022-09-23T12:04:50;16.80;99.90
16767;DHT22;8501;49.926;8.404;2022-09-23T12:07:26;16.90;99.90
16767;DHT22;8501;49.926;8.404;2022-09-23T12:10:05;17.00;99.90
16767;DHT22;8501;49.926;8.404;2022-09-23T12:12:52;17.10;99.90
16767;DHT22;8501;49.926;8.404;2022-09-23T12:18:36;17.10;99.90
16767;DHT22;8501;49.926;8.404;2022-09-23T12:26:14;17.20;99.90
16767;DHT22;8501;49.926;8.404;2022-09-23T12:28:43;17.30;99.90
16767;DHT22;8501;49.926;8.404;2022-09-23T12:31:20;17.40;99.90
16767;DHT22;8501;49.926;8.404;2022-09-23T12:33:55;17.30;99.90
16767;DHT22;8501;49.926;8.404;2022-09-23T12:36:33;17.30;99.90
16767;DHT22;8501;49.926;8.404;2022-09-23T12:41:40;17.50;99.90
16767;DHT22;8501;49.926;8.404;2022-09-23T12:46:36;17.50;99.90
16767;DHT22;8501;49.926;8.404;2022-09-23T12:49:04;17.60;99.90
16767;DHT22;8501;49.926;8.404;2022-09-23T12:51:34;17.60;99.90
16767;DHT22;8501;49.926;8.404;2022-09-23T13:01:42;17.80;99.90
16767;DHT22;8501;49.926;8.404;2022-09-23T13:04:43;17.80;99.90
16767;DHT22;8501;49.926;8.404;2022-09-23T13:07:41;17.80;99.90
16767;DHT22;8501;49.926;8.404;2022-09-23T13:10:29;17.80;99.90
16767;DHT22;8501;49.926;8.404;2022-09-23T13:12:56;17.80;99.90
16767;DHT22;8501;49.926;8.404;2022-09-23T13:15:33;17.90;99.90
16767;DHT22;8501;49.926;8.404;2022-09-23T13:20:48;17.90;99.90
16767;DHT22;8501;49.926;8.404;2022-09-23T13:23:29;18.00;99.90
16767;DHT22;8501;49.926;8.404;2022-09-23T13:26:08;17.90;99.90
16767;DHT22;8501;49.926;8.404;2022-09-23T13:28:40;17.90;99.90
16767;DHT22;8501;49.926;8.404;2022-09-23T13:31:15;17.90;99.90
16767;DHT22;8501;49.926;8.404;2022-09-23T13:33:51;17.90;99.90
16767;DHT22;8501;49.926;8.404;2022-09-23T13:36:21;17.90;99.90
16767;DHT22;8501;49.926;8.404;2022-09-23T13:38:46;17.90;99.90
16767;DHT22;8501;49.926;8.404;2022-09-23T13:41:21;18.00;99.90
16767;DHT22;8501;49.926;8.404;2022-09-23T13:43:50;18.00;99.90
16767;DHT22;8501;49.926;8.404;2022-09-23T13:46:23;18.00;99.90
16767;DHT22;8501;49.926;8.404;2022-09-23T13:48:51;18.10;99.90
16767;DHT22;8501;49.926;8.404;2022-09-23T13:51:27;18.20;99.90
16767;DHT22;8501;49.926;8.404;2022-09-23T13:53:56;18.60;99.90
16767;DHT22;8501;49.926;8.404;2022-09-23T13:56:24;18.80;99.90
16767;DHT22;8501;49.926;8.404;2022-09-23T13:58:49;19.10;99.90
16767;DHT22;8501;49.926;8.404;2022-09-23T14:03:46;19.60;99.90
16767;DHT22;8501;49.926;8.404;2022-09-23T14:06:13;19.60;99.90
16767;DHT22;8501;49.926;8.404;2022-09-23T14:08:46;19.50;99.90
16767;DHT22;8501;49.926;8.404;2022-09-23T14:11:21;19.50;99.90
16767;DHT22;8501;49.926;8.404;2022-09-23T14:13:49;19.30;99.90
16767;DHT22;8501;49.926;8.404;2022-09-23T14:16:20;19.40;99.90
16767;DHT22;8501;49.926;8.404;2022-09-23T14:18:47;19.60;99.90
16767;DHT22;8501;49.926;8.404;2022-09-23T14:21:34;20.00;99.90
16767;DHT22;8501;49.926;8.404;2022-09-23T14:26:34;20.90;99.90
16767;DHT22;8501;49.926;8.404;2022-09-23T14:29:00;20.90;99.90
16767;DHT22;8501;49.926;8.404;2022-09-23T14:31:26;21.10;99.90
16767;DHT22;8501;49.926;8.404;2022-09-23T14:33:52;21.20;99.90
16767;DHT22;8501;49.926;8.404;2022-09-23T14:36:17;21.10;99.90
16767;DHT22;8501;49.926;8.404;2022-09-23T14:39:09;21.40;99.90
16767;DHT22;8501;49.926;8.404;2022-09-23T14:41:38;21.40;99.90
16767;DHT22;8501;49.926;8.404;2022-09-23T14:44:06;21.50;99.90
16767;DHT22;8501;49.926;8.404;2022-09-23T14:46:34;21.50;99.90
16767;DHT22;8501;49.926;8.404;2022-09-23T14:51:54;21.40;99.90
16767;DHT22;8501;49.926;8.404;2022-09-23T14:54:55;21.00;99.90
16767;DHT22;8501;49.926;8.404;2022-09-23T15:02:36;20.30;99.90
16767;DHT22;8501;49.926;8.404;2022-09-23T15:05:39;20.30;99.90
16767;DHT22;8501;49.926;8.404;2022-09-23T15:08:07;20.20;99.90
16767;DHT22;8501;49.926;8.404;2022-09-23T15:10:36;20.40;99.90
16767;DHT22;8501;49.926;8.404;2022-09-23T15:13:17;20.30;99.90
16767;DHT22;8501;49.926;8.404;2022-09-23T15:15:45;20.10;99.90
16767;DHT22;8501;49.926;8.404;2022-09-23T15:18:22;20.00;99.90
16767;DHT22;8501;49.926;8.404;2022-09-23T15:20:53;19.90;99.90
16767;DHT22;8501;49.926;8.404;2022-09-23T15:26:15;19.60;99.90
16767;DHT22;8501;49.926;8.404;2022-09-23T15:28:42;19.50;99.90
16767;DHT22;8501;49.926;8.404;2022-09-23T15:31:15;19.50;99.90
16767;DHT22;8501;49.926;8.404;2022-09-23T15:33:45;19.50;99.90
16767;DHT22;8501;49.926;8.404;2022-09-23T15:36:17;19.40;99.90
16767;DHT22;8501;49.926;8.404;2022-09-23T15:38:43;19.30;99.90
16767;DHT22;8501;49.926;8.404;2022-09-23T15:41:09;19.30;99.90
16767;DHT22;8501;49.926;8.404;2022-09-23T15:43:35;19.20;99.90
16767;DHT22;8501;49.926;8.404;2022-09-23T15:46:22;19.10;99.90
16767;DHT22;8501;49.926;8.404;2022-09-23T15:49:04;19.00;99.90
16767;DHT22;8501;49.926;8.404;2022-09-23T15:51:33;19.00;99.90
16767;DHT22;8501;49.926;8.404;2022-09-23T15:54:01;18.90;99.90
16767;DHT22;8501;49.926;8.404;2022-09-23T15:56:26;18.90;99.90
16767;DHT22;8501;49.926;8.404;2022-09-23T15:58:52;18.90;99.90
16767;DHT22;8501;49.926;8.404;2022-09-23T16:01:26;18.80;99.90
16767;DHT22;8501;49.926;8.404;2022-09-23T16:03:52;18.80;99.90
16767;DHT22;8501;49.926;8.404;2022-09-23T16:06:17;18.80;99.90
16767;DHT22;8501;49.926;8.404;2022-09-23T16:08:44;18.80;99.90
16767;DHT22;8501;49.926;8.404;2022-09-23T16:11:22;18.80;99.90
16767;DHT22;8501;49.926;8.404;2022-09-23T16:13:49;18.70;99.90
16767;DHT22;8501;49.926;8.404;2022-09-23T16:16:15;18.70;99.90
16767;DHT22;8501;49.926;8.404;2022-09-23T16:18:41;18.70;99.90
16767;DHT22;8501;49.926;8.404;2022-09-23T16:21:12;18.70;99.90
16767;DHT22;8501;49.926;8.404;2022-09-23T16:23:40;18.60;99.90
16767;DHT22;8501;49.926;8.404;2022-09-23T16:26:22;18.60;99.90
16767;DHT22;8501;49.926;8.404;2022-09-23T16:28:53;18.60;99.90
16767;DHT22;8501;49.926;8.404;2022-09-23T16:31:20;18.50;99.90
16767;DHT22;8501;49.926;8.404;2022-09-23T16:33:47;18.50;99.90
16767;DHT22;8501;49.926;8.404;2022-09-23T16:36:24;18.40;99.90
16767;DHT22;8501;49.926;8.404;2022-09-23T16:38:54;18.40;99.90
16767;DHT22;8501;49.926;8.404;2022-09-23T16:41:20;18.40;99.90
16767;DHT22;8501;49.926;8.404;2022-09-23T16:43:48;18.30;99.90
16767;DHT22;8501;49.926;8.404;2022-09-23T16:46:15;18.30;99.90
16767;DHT22;8501;49.926;8.404;2022-09-23T16:48:41;18.30;99.90
16767;DHT22;8501;49.926;8.404;2022-09-23T16:51:18;18.30;99.90
16767;DHT22;8501;49.926;8.404;2022-09-23T16:53:45;18.20;99.90
16767;DHT22;8501;49.926;8.404;2022-09-23T16:56:13;18.20;99.90
16767;DHT22;8501;49.926;8.404;2022-09-23T16:58:41;18.10;99.90
16767;DHT22;8501;49.926;8.404;2022-09-23T17:01:12;18.10;99.90
16767;DHT22;8501;49.926;8.404;2022-09-23T17:03:58;18.00;99.90
16767;DHT22;8501;49.926;8.404;2022-09-23T17:06:23;18.00;99.90
16767;DHT22;8501;49.926;8.404;2022-09-23T17:08:52;18.00;99.90
16767;DHT22;8501;49.926;8.404;2022-09-23T17:11:18;17.90;99.90
16767;DHT22;8501;49.926;8.404;2022-09-23T17:13:45;17.80;99.90
16767;DHT22;8501;49.926;8.404;2022-09-23T17:16:21;17.90;99.90
16767;DHT22;8501;49.926;8.404;2022-09-23T17:18:47;17.80;99.90
16767;DHT22;8501;49.926;8.404;2022-09-23T17:21:12;17.80;99.90
16767;DHT22;8501;49.926;8.404;2022-09-23T17:23:38;17.80;99.90
16767;DHT22;8501;49.926;8.404;2022-09-23T17:26:04;17.70;99.90
16767;DHT22;8501;49.926;8.404;2022-09-23T17:28:37;17.70;99.90
16767;DHT22;8501;49.926;8.404;2022-09-23T17:31:04;17.70;99.90
16767;DHT22;8501;49.926;8.404;2022-09-23T17:33:31;17.70;99.90
16767;DHT22;8501;49.926;8.404;2022-09-23T17:35:57;17.60;99.90
16767;DHT22;8501;49.926;8.404;2022-09-23T17:38:24;17.60;99.90
16767;DHT22;8501;49.926;8.404;2022-09-23T17:40:55;17.60;99.90
16767;DHT22;8501;49.926;8.404;2022-09-23T17:43:21;17.60;99.90
16767;DHT22;8501;49.926;8.404;2022-09-23T17:45:55;17.60;99.90
16767;DHT22;8501;49.926;8.404;2022-09-23T17:48:23;17.50;99.90
16767;DHT22;8501;49.926;8.404;2022-09-23T17:53:29;17.40;99.90
16767;DHT22;8501;49.926;8.404;2022-09-23T17:56:20;17.40;99.90
16767;DHT22;8501;49.926;8.404;2022-09-23T17:58:47;17.30;99.90
16767;DHT22;8501;49.926;8.404;2022-09-23T18:01:16;17.30;99.90
16767;DHT22;8501;49.926;8.404;2022-09-23T18:03:42;17.30;99.90
16767;DHT22;8501;49.926;8.404;2022-09-23T18:06:19;17.20;99.90
16767;DHT22;8501;49.926;8.404;2022-09-23T18:08:47;17.10;99.90
16767;DHT22;8501;49.926;8.404;2022-09-23T18:13:45;17.00;99.90
16767;DHT22;8501;49.926;8.404;2022-09-23T18:16:11;17.00;99.90
16767;DHT22;8501;49.926;8.404;2022-09-23T18:18:36;16.90;99.90
16767;DHT22;8501;49.926;8.404;2022-09-23T18:21:03;16.80;99.90
16767;DHT22;8501;49.926;8.404;2022-09-23T18:23:29;16.80;99.90
16767;DHT22;8501;49.926;8.404;2022-09-23T18:25:55;16.80;99.90